Time;durP1;ratioP1;P1;durP2;ratioP2;P2;SDS_P1;SDS_P2;PMS_P1;PMS_P2;Temp;Humidity;BMP_temperature;BMP_pressure;BME280_temperature;BME280_humidity;BME280_pressure;Samples;Min_cycle;Max_cycle;Signal;HPM_P1;HPM_P2
2022/01/12 00:00:29;;;;;;;;;;;4.00;99.90;;;;;;5072609;28;19970;-53
2022/01/12 00:02:55;;;;;;;;;;;4.00;99.90;;;;;;5073301;28;19931;-52
2022/01/12 00:05:20;;;;;;;;;;;4.00;99.90;;;;;;5071988;28;20339;-54
2022/01/12 00:07:48;;;;;;;;;;;4.00;99.90;;;;;;5072575;28;19956;-52
2022/01/12 00:10:14;;;;;;;;;;;4.00;99.90;;;;;;5073290;28;19935;-52
2022/01/12 00:12:39;;;;;;;;;;;4.00;99.90;;;;;;5073765;28;19917;-54
2022/01/12 00:15:05;;;;;;;;;;;4.10;99.90;;;;;;5064798;28;19908;-51
2022/01/12 00:17:30;;;;;;;;;;;4.00;99.90;;;;;;5053725;28;19913;-52
2022/01/12 00:19:56;;;;;;;;;;;4.10;99.90;;;;;;5053518;28;19970;-52
2022/01/12 00:22:21;;;;;;;;;;;4.10;99.90;;;;;;5053072;28;19909;-53
2022/01/12 00:35:32;;;;;;;;;;;4.10;99.90;;;;;;5054188;28;19920;-53
2022/01/12 00:37:57;;;;;;;;;;;4.10;99.90;;;;;;5053346;28;19913;-52
2022/01/12 00:40:23;;;;;;;;;;;4.10;99.90;;;;;;5053443;28;19932;-53
2022/01/12 00:42:48;;;;;;;;;;;4.10;99.90;;;;;;5052950;28;20360;-52
2022/01/12 00:45:14;;;;;;;;;;;4.10;99.90;;;;;;5070053;28;20517;-52
2022/01/12 00:47:39;;;;;;;;;;;4.20;99.90;;;;;;5053716;28;19913;-53
2022/01/12 00:50:05;;;;;;;;;;;4.10;99.90;;;;;;5052771;28;19909;-52
2022/01/12 00:52:30;;;;;;;;;;;4.20;99.90;;;;;;5053007;28;19958;-52
2022/01/12 00:54:56;;;;;;;;;;;4.20;99.90;;;;;;5053236;28;19920;-52
2022/01/12 00:57:21;;;;;;;;;;;4.20;99.90;;;;;;5052731;28;19909;-53
2022/01/12 00:59:47;;;;;;;;;;;4.20;99.90;;;;;;5053250;28;19909;-54
2022/01/12 01:02:12;;;;;;;;;;;4.20;99.90;;;;;;5056613;28;19916;-52
2022/01/12 01:04:38;;;;;;;;;;;4.20;99.90;;;;;;5056354;28;20390;-52
2022/01/12 01:07:03;;;;;;;;;;;4.20;99.90;;;;;;5069246;28;19927;-52
2022/01/12 01:09:30;;;;;;;;;;;4.20;99.90;;;;;;5077200;28;19917;-53
2022/01/12 01:11:55;;;;;;;;;;;4.20;99.90;;;;;;5076690;28;19954;-53
2022/01/12 01:14:33;;;;;;;;;;;4.20;99.90;;;;;;5077096;28;19912;-53
2022/01/12 01:25:34;;;;;;;;;;;4.20;99.90;;;;;;5076454;28;20256;-51
2022/01/12 01:28:00;;;;;;;;;;;4.20;99.90;;;;;;5076963;28;19987;-49
2022/01/12 01:30:26;;;;;;;;;;;4.30;99.90;;;;;;5076730;28;20420;-51
2022/01/12 01:32:51;;;;;;;;;;;4.20;99.90;;;;;;5076377;28;19940;-51
2022/01/12 01:35:18;;;;;;;;;;;4.20;99.90;;;;;;5076686;28;20354;-52
2022/01/12 01:37:44;;;;;;;;;;;4.20;99.90;;;;;;5058312;28;19963;-50
2022/01/12 01:40:10;;;;;;;;;;;4.30;99.90;;;;;;5056491;28;19917;-51
2022/01/12 01:53:39;;;;;;;;;;;4.30;99.90;;;;;;5056278;28;20421;-51
2022/01/12 01:56:04;;;;;;;;;;;4.30;99.90;;;;;;5056302;28;20003;-51
2022/01/12 01:58:30;;;;;;;;;;;4.30;99.90;;;;;;5056284;28;20287;-51
2022/01/12 02:00:55;;;;;;;;;;;4.30;99.90;;;;;;5055696;28;19915;-52
2022/01/12 02:03:25;;;;;;;;;;;4.30;99.90;;;;;;5055785;28;20364;-53
2022/01/12 02:05:51;;;;;;;;;;;4.30;99.90;;;;;;5057111;28;19924;-51
2022/01/12 02:08:16;;;;;;;;;;;4.30;99.90;;;;;;5075989;28;19912;-50
2022/01/12 02:10:41;;;;;;;;;;;4.30;99.90;;;;;;5076216;28;19915;-51
2022/01/12 02:13:08;;;;;;;;;;;4.30;99.90;;;;;;5073512;28;20390;-51
2022/01/12 02:15:34;;;;;;;;;;;4.40;99.90;;;;;;5075885;28;20003;-48
2022/01/12 02:39:43;;;;;;;;;;;4.40;99.90;;;;;;5055907;28;19931;-52
2022/01/12 02:39:59;;;;;;;;;;;4.40;99.90;;;;;;5069231;28;20275;-48
2022/01/12 02:42:26;;;;;;;;;;;4.40;99.90;;;;;;5074868;28;20478;-47
2022/01/12 02:53:40;;;;;;;;;;;4.50;99.90;;;;;;5072184;28;19920;-47
2022/01/12 02:56:07;;;;;;;;;;;4.50;99.90;;;;;;5055937;28;19920;-47
2022/01/12 02:58:32;;;;;;;;;;;4.50;99.90;;;;;;5055102;28;19962;-50
2022/01/12 03:03:44;;;;;;;;;;;4.50;99.90;;;;;;5054549;28;19975;-46
2022/01/12 03:06:15;;;;;;;;;;;4.50;99.90;;;;;;5055059;28;19960;-47
2022/01/12 03:08:40;;;;;;;;;;;4.50;99.90;;;;;;5055110;28;19936;-46
2022/01/12 03:11:07;;;;;;;;;;;4.50;99.90;;;;;;5054530;28;20344;-48
2022/01/12 03:13:33;;;;;;;;;;;4.50;99.90;;;;;;5054830;28;19913;-46
2022/01/12 03:15:58;;;;;;;;;;;4.60;99.90;;;;;;5054743;28;19909;-47
2022/01/12 03:18:24;;;;;;;;;;;4.50;99.90;;;;;;5054236;28;19948;-47
2022/01/12 03:20:49;;;;;;;;;;;4.60;99.90;;;;;;5054788;28;19923;-47
2022/01/12 03:23:15;;;;;;;;;;;4.60;99.90;;;;;;5070300;28;19922;-46
2022/01/12 03:25:41;;;;;;;;;;;4.60;99.90;;;;;;5074440;28;19921;-46
2022/01/12 03:28:07;;;;;;;;;;;4.60;99.90;;;;;;5074516;28;20007;-47
2022/01/12 03:33:33;;;;;;;;;;;4.60;99.90;;;;;;5054566;28;19974;-47
2022/01/12 03:36:23;;;;;;;;;;;4.60;99.90;;;;;;5054420;28;20003;-47
2022/01/12 03:38:46;;;;;;;;;;;4.60;99.90;;;;;;5053803;28;20008;-47
2022/01/12 03:41:12;;;;;;;;;;;4.60;99.90;;;;;;5056088;28;19996;-47
2022/01/12 03:43:38;;;;;;;;;;;4.60;99.90;;;;;;5074306;28;19912;-46
2022/01/12 03:46:04;;;;;;;;;;;4.60;99.90;;;;;;5073689;28;19963;-46
2022/01/12 03:48:29;;;;;;;;;;;4.60;99.90;;;;;;5074129;28;19912;-47
2022/01/12 03:50:56;;;;;;;;;;;4.60;99.90;;;;;;5074157;28;20282;-47
2022/01/12 03:53:22;;;;;;;;;;;4.60;99.90;;;;;;5073506;28;19916;-48
2022/01/12 03:55:48;;;;;;;;;;;4.60;99.90;;;;;;5073929;28;19915;-47
2022/01/12 03:58:13;;;;;;;;;;;4.60;99.90;;;;;;5073928;28;19920;-47
2022/01/12 04:00:39;;;;;;;;;;;4.60;99.90;;;;;;5073147;28;19962;-47
2022/01/12 04:03:06;;;;;;;;;;;4.60;99.90;;;;;;5071235;28;20026;-47
2022/01/12 04:10:41;;;;;;;;;;;4.60;99.90;;;;;;5074201;28;19915;-46
2022/01/12 04:13:07;;;;;;;;;;;4.60;99.90;;;;;;5073373;28;19908;-47
2022/01/12 04:15:32;;;;;;;;;;;4.60;99.90;;;;;;5073627;28;19917;-48
2022/01/12 04:17:58;;;;;;;;;;;4.60;99.90;;;;;;5073685;28;19908;-48
2022/01/12 04:20:23;;;;;;;;;;;4.60;99.90;;;;;;5073041;28;19915;-47
2022/01/12 04:25:33;;;;;;;;;;;4.50;99.90;;;;;;5073741;28;20082;-47
2022/01/12 04:27:58;;;;;;;;;;;4.50;99.90;;;;;;5073102;28;19994;-47
2022/01/12 04:30:24;;;;;;;;;;;4.50;99.90;;;;;;5073587;28;19915;-47
2022/01/12 04:32:49;;;;;;;;;;;4.50;99.90;;;;;;5056102;28;19971;-47
2022/01/12 04:35:16;;;;;;;;;;;4.40;99.90;;;;;;5051991;28;19992;-47
2022/01/12 04:37:42;;;;;;;;;;;4.40;99.90;;;;;;5053550;28;20023;-47
2022/01/12 04:40:07;;;;;;;;;;;4.30;99.90;;;;;;5053418;28;20383;-47
2022/01/12 04:42:35;;;;;;;;;;;4.30;99.90;;;;;;5052849;28;19999;-46
2022/01/12 04:45:14;;;;;;;;;;;4.30;99.90;;;;;;5053344;28;19923;-48
2022/01/12 04:47:58;;;;;;;;;;;4.20;99.90;;;;;;5053004;28;19909;-46
2022/01/12 04:50:24;;;;;;;;;;;4.20;99.90;;;;;;5053376;28;19916;-46
2022/01/12 04:52:50;;;;;;;;;;;4.10;99.90;;;;;;5053378;28;19909;-47
2022/01/12 04:55:15;;;;;;;;;;;4.00;99.90;;;;;;5052667;28;19915;-47
2022/01/12 04:57:41;;;;;;;;;;;4.00;99.90;;;;;;5053280;28;19913;-48
2022/01/12 05:00:14;;;;;;;;;;;4.00;99.90;;;;;;5053187;28;20533;-47
2022/01/12 05:13:23;;;;;;;;;;;3.90;99.90;;;;;;5053427;28;19916;-47
2022/01/12 05:15:49;;;;;;;;;;;3.90;99.90;;;;;;5052657;28;19909;-47
2022/01/12 05:18:14;;;;;;;;;;;3.90;99.90;;;;;;5053050;28;19909;-46
2022/01/12 05:20:39;;;;;;;;;;;3.90;99.90;;;;;;5053004;28;19912;-46
2022/01/12 05:23:05;;;;;;;;;;;3.90;99.90;;;;;;5052491;28;19919;-46
2022/01/12 05:25:30;;;;;;;;;;;3.90;99.90;;;;;;5052793;28;19944;-46
2022/01/12 05:27:56;;;;;;;;;;;3.90;99.90;;;;;;5052859;28;19924;-47
2022/01/12 05:30:22;;;;;;;;;;;3.90;99.90;;;;;;5052457;28;19912;-47
2022/01/12 05:32:48;;;;;;;;;;;3.90;99.90;;;;;;5071458;28;20348;-46
2022/01/12 05:35:16;;;;;;;;;;;3.90;99.90;;;;;;5072860;28;19908;-46
2022/01/12 05:37:44;;;;;;;;;;;3.90;99.90;;;;;;5072687;28;19961;-46
2022/01/12 05:40:09;;;;;;;;;;;3.90;99.90;;;;;;5073000;28;19909;-47
2022/01/12 05:42:35;;;;;;;;;;;3.90;99.90;;;;;;5072946;28;19908;-45
2022/01/12 05:45:00;;;;;;;;;;;3.90;99.90;;;;;;5072340;28;20136;-46
2022/01/12 05:50:00;;;;;;;;;;;3.90;99.90;;;;;;5074762;28;19912;-46
2022/01/12 05:52:26;;;;;;;;;;;4.00;99.90;;;;;;5075951;28;20362;-46
2022/01/12 05:54:51;;;;;;;;;;;4.00;99.90;;;;;;5076363;28;20363;-47
2022/01/12 05:57:17;;;;;;;;;;;4.00;99.90;;;;;;5076245;28;20294;-46
2022/01/12 05:59:42;;;;;;;;;;;4.00;99.90;;;;;;5075957;28;19961;-46
2022/01/12 06:02:08;;;;;;;;;;;4.00;99.90;;;;;;5076323;28;20386;-46
2022/01/12 06:04:33;;;;;;;;;;;4.00;99.90;;;;;;5075878;28;19943;-46
2022/01/12 06:07:01;;;;;;;;;;;4.10;99.90;;;;;;5075637;28;19916;-47
2022/01/12 06:09:27;;;;;;;;;;;4.10;99.90;;;;;;5076055;28;19994;-47
2022/01/12 06:11:53;;;;;;;;;;;4.10;99.90;;;;;;5076157;28;19970;-46
2022/01/12 06:14:20;;;;;;;;;;;4.20;99.90;;;;;;5075533;28;20348;-46
2022/01/12 06:16:45;;;;;;;;;;;4.20;99.90;;;;;;5076018;28;19993;-50
2022/01/12 06:19:11;;;;;;;;;;;4.30;99.90;;;;;;5062984;28;19917;-47
2022/01/12 06:21:36;;;;;;;;;;;4.30;99.90;;;;;;5055903;28;19909;-46
2022/01/12 06:24:02;;;;;;;;;;;4.30;99.90;;;;;;5055883;28;20288;-47
2022/01/12 06:26:27;;;;;;;;;;;4.30;99.90;;;;;;5055202;28;20279;-47
2022/01/12 06:29:24;;;;;;;;;;;4.30;99.90;;;;;;5055864;28;19944;-46
2022/01/12 06:31:41;;;;;;;;;;;4.30;99.90;;;;;;5055339;28;19963;-46
2022/01/12 06:34:06;;;;;;;;;;;4.30;99.90;;;;;;5055162;28;20003;-46
2022/01/12 06:36:32;;;;;;;;;;;4.30;99.90;;;;;;5055531;28;19955;-47
2022/01/12 06:38:57;;;;;;;;;;;4.30;99.90;;;;;;5055646;28;19909;-47
2022/01/12 06:41:23;;;;;;;;;;;4.30;99.90;;;;;;5054931;28;19916;-47
2022/01/12 06:43:49;;;;;;;;;;;4.30;99.90;;;;;;5055565;28;20379;-47
2022/01/12 06:46:17;;;;;;;;;;;4.20;99.90;;;;;;5055299;28;19917;-47
2022/01/12 06:48:43;;;;;;;;;;;4.30;99.90;;;;;;5055846;28;19913;-47
2022/01/12 06:51:09;;;;;;;;;;;4.30;99.90;;;;;;5055519;28;19954;-47
2022/01/12 06:53:34;;;;;;;;;;;4.20;99.90;;;;;;5056334;28;20387;-48
2022/01/12 06:56:00;;;;;;;;;;;4.20;99.90;;;;;;5054854;28;19959;-48
2022/01/12 06:58:25;;;;;;;;;;;4.20;99.90;;;;;;5054148;28;19916;-47
2022/01/12 07:00:51;;;;;;;;;;;4.20;99.90;;;;;;5055146;28;20386;-46
2022/01/12 07:03:16;;;;;;;;;;;4.20;99.90;;;;;;5054424;28;20383;-46
2022/01/12 07:05:42;;;;;;;;;;;4.20;99.90;;;;;;5054881;28;19921;-48
2022/01/12 07:08:07;;;;;;;;;;;4.10;99.90;;;;;;5054986;28;19911;-47
2022/01/12 07:10:33;;;;;;;;;;;4.10;99.90;;;;;;5054207;28;19927;-47
2022/01/12 07:12:58;;;;;;;;;;;4.10;99.90;;;;;;5055060;28;19909;-46
2022/01/12 07:15:24;;;;;;;;;;;4.00;99.90;;;;;;5054247;28;20008;-47
2022/01/12 07:17:49;;;;;;;;;;;4.00;99.90;;;;;;5057481;28;20663;-47
2022/01/12 07:20:15;;;;;;;;;;;4.00;99.90;;;;;;5074425;28;19912;-46
2022/01/12 07:22:41;;;;;;;;;;;4.00;99.90;;;;;;5073927;28;19915;-48
2022/01/12 07:25:07;;;;;;;;;;;4.00;99.90;;;;;;5074661;28;20278;-46
2022/01/12 07:27:32;;;;;;;;;;;3.90;99.90;;;;;;5072800;28;19908;-46
2022/01/12 07:29:58;;;;;;;;;;;4.00;99.90;;;;;;5074034;28;20351;-47
2022/01/12 07:32:23;;;;;;;;;;;4.00;99.90;;;;;;5074382;28;19981;-48
2022/01/12 07:34:50;;;;;;;;;;;4.00;99.90;;;;;;5074360;28;19908;-47
2022/01/12 07:37:16;;;;;;;;;;;4.00;99.90;;;;;;5073436;28;19932;-46
2022/01/12 07:39:41;;;;;;;;;;;4.00;99.90;;;;;;5064877;28;20272;-47
2022/01/12 07:42:07;;;;;;;;;;;3.90;99.90;;;;;;5074453;28;19909;-47
2022/01/12 07:44:33;;;;;;;;;;;4.00;99.90;;;;;;5072491;28;19908;-51
2022/01/12 07:46:58;;;;;;;;;;;4.00;99.90;;;;;;5062772;28;19920;-48
2022/01/12 07:49:23;;;;;;;;;;;4.00;99.90;;;;;;5061698;28;19913;-47
2022/01/12 07:51:49;;;;;;;;;;;4.00;99.90;;;;;;5062776;28;19962;-48
2022/01/12 07:54:14;;;;;;;;;;;4.00;99.90;;;;;;5060668;28;19937;-48
2022/01/12 07:56:40;;;;;;;;;;;3.90;99.90;;;;;;5054779;28;19916;-47
2022/01/12 07:59:05;;;;;;;;;;;3.90;99.90;;;;;;5068464;28;19915;-48
2022/01/12 08:01:31;;;;;;;;;;;3.90;99.90;;;;;;5069697;28;19947;-47
2022/01/12 08:03:57;;;;;;;;;;;3.90;99.90;;;;;;5063904;28;19927;-49
2022/01/12 08:06:22;;;;;;;;;;;3.90;99.90;;;;;;5054257;28;19917;-49
2022/01/12 08:08:48;;;;;;;;;;;3.90;99.90;;;;;;5053392;28;20473;-47
2022/01/12 08:11:13;;;;;;;;;;;3.90;99.90;;;;;;5052659;28;19962;-47
2022/01/12 08:13:39;;;;;;;;;;;3.90;99.90;;;;;;5058164;28;19970;-50
2022/01/12 08:16:05;;;;;;;;;;;3.80;99.90;;;;;;5072937;28;20480;-47
2022/01/12 08:18:30;;;;;;;;;;;3.80;99.90;;;;;;5063195;28;19936;-47
2022/01/12 08:20:56;;;;;;;;;;;3.80;99.90;;;;;;5068167;28;19944;-47
2022/01/12 08:23:21;;;;;;;;;;;3.80;99.90;;;;;;5072617;28;19913;-48
2022/01/12 08:25:47;;;;;;;;;;;3.80;99.90;;;;;;5072524;28;19916;-48
2022/01/12 08:28:12;;;;;;;;;;;3.80;99.90;;;;;;5072711;28;19908;-48
2022/01/12 08:30:38;;;;;;;;;;;3.80;99.90;;;;;;5072705;28;19908;-48
2022/01/12 08:33:04;;;;;;;;;;;3.70;99.90;;;;;;5072494;28;19909;-49
2022/01/12 08:35:30;;;;;;;;;;;3.60;99.90;;;;;;5070845;28;19924;-48
2022/01/12 08:37:57;;;;;;;;;;;3.50;99.90;;;;;;5072814;28;19909;-47
2022/01/12 08:40:23;;;;;;;;;;;3.50;99.90;;;;;;5062258;28;19919;-49
2022/01/12 08:42:48;;;;;;;;;;;3.60;99.90;;;;;;5068746;28;19948;-50
2022/01/12 08:45:15;;;;;;;;;;;3.60;99.90;;;;;;5069299;28;19975;-51
2022/01/12 08:47:41;;;;;;;;;;;3.70;99.90;;;;;;5051474;28;19948;-48
2022/01/12 08:50:07;;;;;;;;;;;3.70;99.90;;;;;;5052088;28;19955;-47
2022/01/12 08:52:33;;;;;;;;;;;3.90;99.90;;;;;;5051606;28;20351;-48
2022/01/12 08:55:00;;;;;;;;;;;4.00;99.90;;;;;;5051856;28;19995;-48
2022/01/12 08:57:29;;;;;;;;;;;4.10;99.90;;;;;;5055083;28;19912;-50
2022/01/12 08:59:56;;;;;;;;;;;4.20;99.90;;;;;;5072557;28;19916;-48
2022/01/12 09:02:21;;;;;;;;;;;4.20;99.90;;;;;;5071557;28;20270;-48
2022/01/12 09:04:47;;;;;;;;;;;4.30;99.90;;;;;;5072165;28;20011;-50
2022/01/12 09:07:12;;;;;;;;;;;4.40;99.90;;;;;;5072321;28;19919;-48
2022/01/12 09:09:37;;;;;;;;;;;4.40;99.90;;;;;;5072065;28;19954;-49
2022/01/12 09:12:03;;;;;;;;;;;4.50;99.90;;;;;;5072293;28;19915;-49
2022/01/12 09:14:29;;;;;;;;;;;4.60;99.90;;;;;;5072315;28;20428;-51
2022/01/12 09:16:55;;;;;;;;;;;4.70;99.90;;;;;;5065316;28;19919;-48
2022/01/12 09:19:21;;;;;;;;;;;4.80;99.90;;;;;;5059317;28;20078;-52
2022/01/12 09:21:47;;;;;;;;;;;4.80;99.90;;;;;;5060950;28;19928;-48
2022/01/12 09:24:12;;;;;;;;;;;4.80;99.90;;;;;;5071341;28;19969;-55
2022/01/12 09:26:37;;;;;;;;;;;4.80;99.90;;;;;;5074124;28;19916;-50
2022/01/12 09:29:03;;;;;;;;;;;4.80;99.90;;;;;;5074475;28;19915;-48
2022/01/12 09:31:28;;;;;;;;;;;4.90;99.90;;;;;;5073869;28;19912;-47
2022/01/12 09:33:54;;;;;;;;;;;4.90;99.90;;;;;;5061636;28;20007;-49
2022/01/12 09:36:20;;;;;;;;;;;4.90;99.90;;;;;;5054855;28;19951;-48
2022/01/12 09:38:45;;;;;;;;;;;4.90;99.90;;;;;;5060511;28;19964;-48
2022/01/12 09:41:11;;;;;;;;;;;5.00;99.90;;;;;;5074903;28;20116;-51
2022/01/12 09:43:38;;;;;;;;;;;5.00;99.90;;;;;;5064169;28;19916;-52
2022/01/12 09:46:04;;;;;;;;;;;5.10;99.90;;;;;;5074719;28;19916;-48
2022/01/12 09:48:33;;;;;;;;;;;5.20;99.90;;;;;;5075170;28;19912;-49
2022/01/12 09:51:01;;;;;;;;;;;5.20;99.90;;;;;;5074883;28;19909;-48
2022/01/12 09:53:28;;;;;;;;;;;5.30;99.90;;;;;;5075043;28;20412;-49
2022/01/12 09:55:54;;;;;;;;;;;5.30;99.90;;;;;;5074225;28;19943;-48
2022/01/12 09:58:19;;;;;;;;;;;5.30;99.90;;;;;;5074006;28;20422;-51
2022/01/12 10:00:55;;;;;;;;;;;5.40;99.90;;;;;;5074926;28;19909;-50
2022/01/12 10:03:23;;;;;;;;;;;5.40;99.90;;;;;;5074480;28;19995;-51
2022/01/12 10:05:49;;;;;;;;;;;5.40;99.90;;;;;;5074100;28;20359;-48
2022/01/12 10:08:15;;;;;;;;;;;5.50;99.90;;;;;;5073238;28;19908;-49
2022/01/12 10:10:42;;;;;;;;;;;5.50;99.90;;;;;;5071944;28;19923;-49
2022/01/12 10:13:23;;;;;;;;;;;5.60;99.90;;;;;;5074269;28;19912;-51
2022/01/12 10:15:50;;;;;;;;;;;5.70;99.90;;;;;;5072407;28;19909;-49
2022/01/12 10:18:15;;;;;;;;;;;5.70;99.90;;;;;;5073924;28;19916;-50
2022/01/12 10:20:45;;;;;;;;;;;5.70;99.90;;;;;;5074358;28;19912;-52
2022/01/12 10:23:12;;;;;;;;;;;5.80;99.90;;;;;;5074285;28;19981;-49
2022/01/12 10:25:38;;;;;;;;;;;5.90;99.90;;;;;;5074093;28;19924;-52
2022/01/12 10:28:11;;;;;;;;;;;5.90;99.90;;;;;;5074761;28;19909;-52
2022/01/12 10:30:37;;;;;;;;;;;5.90;99.90;;;;;;5074114;28;19951;-54
2022/01/12 10:33:04;;;;;;;;;;;5.90;99.90;;;;;;5073407;28;19960;-52
2022/01/12 10:35:31;;;;;;;;;;;5.90;99.90;;;;;;5073625;28;19916;-51
2022/01/12 10:38:13;;;;;;;;;;;5.90;99.90;;;;;;5073581;28;20371;-51
2022/01/12 10:40:49;;;;;;;;;;;5.90;99.90;;;;;;5072989;28;20030;-53
2022/01/12 10:43:33;;;;;;;;;;;5.90;99.90;;;;;;5053940;28;19964;-53
2022/01/12 10:45:59;;;;;;;;;;;5.90;99.90;;;;;;5059690;28;20011;-54
2022/01/12 10:48:32;;;;;;;;;;;5.90;99.90;;;;;;5073355;28;19912;-54
2022/01/12 10:50:58;;;;;;;;;;;6.00;99.90;;;;;;5073711;28;19954;-54
2022/01/12 10:53:28;;;;;;;;;;;6.00;99.90;;;;;;5073138;28;19915;-54
2022/01/12 10:56:13;;;;;;;;;;;6.00;99.90;;;;;;5073639;28;19913;-55
2022/01/12 10:58:40;;;;;;;;;;;6.00;99.90;;;;;;5070318;28;19919;-54
2022/01/12 11:01:06;;;;;;;;;;;6.00;99.90;;;;;;5064450;28;19909;-53
2022/01/12 11:03:31;;;;;;;;;;;6.10;99.90;;;;;;5069702;28;19912;-53
2022/01/12 11:05:57;;;;;;;;;;;6.10;99.90;;;;;;5073411;28;19977;-54
2022/01/12 11:08:24;;;;;;;;;;;6.00;99.90;;;;;;5065129;28;19908;-55
2022/01/12 11:10:50;;;;;;;;;;;6.10;99.90;;;;;;5063464;28;19912;-54
2022/01/12 11:13:15;;;;;;;;;;;6.10;99.90;;;;;;5070328;28;20240;-54
2022/01/12 11:15:42;;;;;;;;;;;6.10;99.90;;;;;;5064730;28;19909;-54
2022/01/12 11:18:08;;;;;;;;;;;6.10;99.90;;;;;;5063765;28;20345;-54
2022/01/12 11:20:34;;;;;;;;;;;6.10;99.90;;;;;;5073077;28;20337;-53
2022/01/12 11:22:59;;;;;;;;;;;6.00;99.90;;;;;;5072735;28;19912;-54
2022/01/12 11:25:28;;;;;;;;;;;6.00;99.90;;;;;;5072934;28;19912;-55
2022/01/12 11:28:07;;;;;;;;;;;6.10;99.90;;;;;;5072892;28;19909;-55
2022/01/12 11:30:33;;;;;;;;;;;6.00;99.90;;;;;;5072860;28;19917;-55
2022/01/12 11:32:59;;;;;;;;;;;6.10;99.90;;;;;;5073317;28;19908;-53
2022/01/12 11:35:26;;;;;;;;;;;6.00;99.90;;;;;;5072825;28;20011;-54
2022/01/12 11:37:57;;;;;;;;;;;6.10;99.90;;;;;;5072244;28;20104;-54
2022/01/12 11:40:32;;;;;;;;;;;6.10;99.90;;;;;;5063015;28;19916;-54
2022/01/12 11:42:57;;;;;;;;;;;6.20;99.90;;;;;;5064297;28;19928;-55
2022/01/12 11:45:22;;;;;;;;;;;6.20;99.90;;;;;;5072025;28;20462;-55
2022/01/12 11:47:48;;;;;;;;;;;6.20;99.90;;;;;;5072946;28;20018;-54
2022/01/12 11:50:14;;;;;;;;;;;6.20;99.90;;;;;;5070937;28;19909;-54
2022/01/12 11:52:39;;;;;;;;;;;6.30;99.90;;;;;;5058844;28;19952;-54
2022/01/12 11:55:10;;;;;;;;;;;6.30;99.90;;;;;;5071428;28;20351;-54
2022/01/12 11:57:36;;;;;;;;;;;6.40;99.90;;;;;;5072141;28;19908;-53
2022/01/12 12:00:12;;;;;;;;;;;6.40;99.90;;;;;;5072848;28;20306;-55
2022/01/12 12:02:56;;;;;;;;;;;6.30;99.90;;;;;;5072988;28;19920;-55
2022/01/12 12:05:23;;;;;;;;;;;6.30;99.90;;;;;;5096357;28;19987;-54
2022/01/12 12:07:50;;;;;;;;;;;6.30;99.90;;;;;;5092659;28;19939;-52
2022/01/12 12:10:16;;;;;;;;;;;6.30;99.90;;;;;;5096564;28;19962;-55
2022/01/12 12:12:42;;;;;;;;;;;6.20;99.90;;;;;;5093522;28;19912;-55
2022/01/12 12:15:09;;;;;;;;;;;6.20;99.90;;;;;;5099211;28;20278;-55
2022/01/12 12:17:35;;;;;;;;;;;6.20;99.90;;;;;;5101395;28;19919;-55
2022/01/12 12:20:02;;;;;;;;;;;6.30;99.90;;;;;;5111178;28;20037;-55
2022/01/12 12:22:29;;;;;;;;;;;6.30;99.90;;;;;;5101068;28;19916;-54
2022/01/12 12:24:58;;;;;;;;;;;6.30;99.90;;;;;;5102533;28;19918;-54
2022/01/12 12:27:25;;;;;;;;;;;6.30;99.90;;;;;;5102956;28;19908;-54
2022/01/12 12:29:51;;;;;;;;;;;6.40;99.90;;;;;;5092478;28;20370;-53
2022/01/12 12:32:18;;;;;;;;;;;6.40;99.90;;;;;;5089757;28;19960;-55
2022/01/12 12:34:44;;;;;;;;;;;6.30;99.90;;;;;;5092699;28;19908;-55
2022/01/12 12:37:11;;;;;;;;;;;6.30;99.90;;;;;;5092236;28;20408;-56
2022/01/12 12:39:38;;;;;;;;;;;6.30;99.90;;;;;;5093893;28;19954;-56
2022/01/12 12:42:05;;;;;;;;;;;6.30;99.90;;;;;;5091004;28;19912;-55
2022/01/12 12:44:32;;;;;;;;;;;6.30;99.90;;;;;;5093410;28;19919;-54
2022/01/12 12:47:09;;;;;;;;;;;6.30;99.90;;;;;;5093308;28;19923;-55
2022/01/12 12:49:36;;;;;;;;;;;6.40;99.90;;;;;;5093620;28;19912;-55
2022/01/12 12:52:02;;;;;;;;;;;6.30;99.90;;;;;;5094655;28;19908;-54
2022/01/12 12:54:27;;;;;;;;;;;6.30;99.90;;;;;;5090049;28;19909;-54
2022/01/12 12:57:02;;;;;;;;;;;6.40;99.90;;;;;;5092084;28;20349;-54
2022/01/12 12:59:31;;;;;;;;;;;6.40;99.90;;;;;;5096547;28;19990;-54
2022/01/12 13:01:57;;;;;;;;;;;6.40;99.90;;;;;;5092853;28;19940;-55
2022/01/12 13:04:22;;;;;;;;;;;6.40;99.90;;;;;;5088966;28;19966;-54
2022/01/12 13:06:48;;;;;;;;;;;6.40;99.90;;;;;;5085084;28;19928;-55
2022/01/12 13:09:16;;;;;;;;;;;6.50;99.90;;;;;;5086020;28;19954;-55
2022/01/12 13:11:48;;;;;;;;;;;6.50;99.90;;;;;;5079990;28;20416;-54
2022/01/12 13:14:15;;;;;;;;;;;6.50;99.90;;;;;;5074032;28;19916;-55
2022/01/12 13:16:44;;;;;;;;;;;6.50;99.90;;;;;;5086715;28;20033;-54
2022/01/12 13:19:21;;;;;;;;;;;6.60;99.90;;;;;;5086335;28;19946;-55
2022/01/12 13:21:47;;;;;;;;;;;6.60;99.90;;;;;;5082084;28;20010;-55
2022/01/12 13:24:13;;;;;;;;;;;6.60;99.90;;;;;;5089307;28;19947;-53
2022/01/12 13:26:39;;;;;;;;;;;6.60;99.90;;;;;;5096281;28;20385;-55
2022/01/12 13:29:09;;;;;;;;;;;6.60;99.90;;;;;;5084954;28;19935;-55
2022/01/12 13:31:35;;;;;;;;;;;6.60;99.90;;;;;;5075952;28;19913;-54
2022/01/12 13:34:01;;;;;;;;;;;6.50;99.90;;;;;;5075855;28;19916;-54
2022/01/12 13:36:29;;;;;;;;;;;6.50;99.90;;;;;;5075232;28;19912;-55
2022/01/12 13:38:57;;;;;;;;;;;6.60;99.90;;;;;;5076192;28;19987;-54
2022/01/12 13:41:25;;;;;;;;;;;6.50;99.90;;;;;;5075419;28;19951;-55
2022/01/12 13:44:04;;;;;;;;;;;6.50;99.90;;;;;;5075519;28;19908;-55
2022/01/12 13:46:33;;;;;;;;;;;6.50;99.90;;;;;;5075477;28;20647;-55
2022/01/12 13:49:21;;;;;;;;;;;6.50;99.90;;;;;;5075947;28;19999;-54
2022/01/12 13:52:00;;;;;;;;;;;6.50;99.90;;;;;;5075758;28;19908;-54
2022/01/12 13:54:39;;;;;;;;;;;6.40;99.90;;;;;;5075304;28;19920;-55
2022/01/12 13:57:05;;;;;;;;;;;6.30;99.90;;;;;;5075107;28;19916;-55
2022/01/12 13:59:32;;;;;;;;;;;6.30;99.90;;;;;;5075556;28;19909;-55
2022/01/12 14:01:58;;;;;;;;;;;6.30;99.90;;;;;;5068638;28;19948;-55
2022/01/12 14:04:28;;;;;;;;;;;6.30;99.90;;;;;;5084362;28;19920;-54
2022/01/12 14:06:55;;;;;;;;;;;6.20;99.90;;;;;;5095151;28;19920;-53
2022/01/12 14:09:30;;;;;;;;;;;6.20;99.90;;;;;;5094786;28;20236;-55
2022/01/12 14:11:56;;;;;;;;;;;6.10;99.90;;;;;;5095216;28;20321;-55
2022/01/12 14:14:22;;;;;;;;;;;6.10;99.90;;;;;;5095381;28;19923;-54
2022/01/12 14:16:49;;;;;;;;;;;6.00;99.90;;;;;;5095770;28;19908;-55
2022/01/12 14:19:14;;;;;;;;;;;5.90;99.90;;;;;;5094850;28;19909;-53
2022/01/12 14:21:41;;;;;;;;;;;5.80;99.90;;;;;;5095664;28;19930;-55
2022/01/12 14:24:10;;;;;;;;;;;5.80;99.90;;;;;;5095540;28;19912;-54
2022/01/12 14:26:40;;;;;;;;;;;5.70;99.90;;;;;;5094776;28;19916;-55
2022/01/12 14:29:09;;;;;;;;;;;5.70;99.90;;;;;;5095499;28;19908;-55
2022/01/12 14:31:35;;;;;;;;;;;5.70;99.90;;;;;;5093494;28;19916;-55
2022/01/12 14:34:01;;;;;;;;;;;5.60;99.90;;;;;;5095275;28;20366;-55
2022/01/12 14:36:26;;;;;;;;;;;5.70;99.90;;;;;;5094971;28;20275;-54
2022/01/12 14:38:52;;;;;;;;;;;5.70;99.90;;;;;;5094851;28;20120;-55
2022/01/12 14:41:17;;;;;;;;;;;5.60;99.90;;;;;;5094794;28;20380;-55
2022/01/12 14:43:43;;;;;;;;;;;5.70;99.90;;;;;;5095193;28;19912;-55
2022/01/12 14:46:09;;;;;;;;;;;5.60;99.90;;;;;;5094548;28;19923;-55
2022/01/12 14:48:34;;;;;;;;;;;5.60;99.90;;;;;;5094851;28;19912;-55
2022/01/12 14:51:01;;;;;;;;;;;5.60;99.90;;;;;;5095041;28;19951;-55
2022/01/12 14:53:27;;;;;;;;;;;5.50;99.90;;;;;;5094049;28;20358;-54
2022/01/12 14:55:54;;;;;;;;;;;5.60;99.90;;;;;;5094935;28;19919;-55
2022/01/12 14:58:20;;;;;;;;;;;5.60;99.90;;;;;;5094512;28;20355;-55
2022/01/12 15:00:46;;;;;;;;;;;5.60;99.90;;;;;;5092618;28;19958;-56
2022/01/12 15:03:11;;;;;;;;;;;5.50;99.90;;;;;;5082844;28;19912;-55
2022/01/12 15:05:39;;;;;;;;;;;5.50;99.90;;;;;;5074094;28;19921;-55
2022/01/12 15:08:04;;;;;;;;;;;5.50;99.90;;;;;;5074066;28;19915;-55
2022/01/12 15:10:30;;;;;;;;;;;5.50;99.90;;;;;;5074156;28;19913;-55
2022/01/12 15:13:03;;;;;;;;;;;5.50;99.90;;;;;;5074213;28;19924;-55
2022/01/12 15:15:29;;;;;;;;;;;5.50;99.90;;;;;;5073472;28;19916;-55
2022/01/12 15:17:54;;;;;;;;;;;5.50;99.90;;;;;;5074195;28;19909;-55
2022/01/12 15:20:20;;;;;;;;;;;5.50;99.90;;;;;;5072856;28;20038;-55
2022/01/12 15:22:46;;;;;;;;;;;5.50;99.90;;;;;;5091379;28;19956;-54
2022/01/12 15:25:13;;;;;;;;;;;5.50;99.90;;;;;;5093378;28;19954;-55
2022/01/12 15:27:39;;;;;;;;;;;5.50;99.90;;;;;;5093885;28;19971;-54
2022/01/12 15:30:06;;;;;;;;;;;5.60;99.90;;;;;;5093578;28;20338;-55
2022/01/12 15:32:31;;;;;;;;;;;5.50;99.90;;;;;;5089469;28;19912;-55
2022/01/12 15:34:57;;;;;;;;;;;5.60;99.90;;;;;;5081918;28;19912;-55
2022/01/12 15:37:23;;;;;;;;;;;5.60;99.90;;;;;;5073466;28;19936;-55
2022/01/12 15:39:49;;;;;;;;;;;5.60;99.90;;;;;;5091717;28;19912;-55
2022/01/12 15:42:14;;;;;;;;;;;5.60;99.90;;;;;;5093150;28;19999;-55
2022/01/12 15:44:39;;;;;;;;;;;5.60;99.90;;;;;;5093854;28;20385;-55
2022/01/12 15:47:06;;;;;;;;;;;5.60;99.90;;;;;;5093871;28;19916;-55
2022/01/12 15:49:31;;;;;;;;;;;5.60;99.90;;;;;;5092769;28;19968;-55
2022/01/12 15:51:57;;;;;;;;;;;5.60;99.90;;;;;;5093573;28;20335;-55
2022/01/12 15:54:23;;;;;;;;;;;5.50;99.90;;;;;;5093336;28;19915;-55